createdAt,value
2023-03-23T15:59:14.145Z,99687.93
2023-03-23T16:01:43.621Z,99691.11
2023-03-23T16:04:15.635Z,99694.05
2023-03-23T16:06:43.997Z,99700.84
2023-03-23T16:09:19.249Z,99703.38
2023-03-23T16:11:48.533Z,99705.55
2023-03-23T16:14:16.585Z,99703.35
2023-03-23T16:16:51.209Z,99709.89
2023-03-23T16:19:24.806Z,99710.51
2023-03-23T16:21:53.046Z,99710.23
2023-03-23T16:24:21.200Z,99712.10
2023-03-23T16:26:49.265Z,99699.88
2023-03-23T16:29:33.779Z,99708.39
2023-03-23T16:32:09.574Z,99704.64
2023-03-23T16:34:38.508Z,99706.33
2023-03-23T16:37:07.446Z,99714.02
2023-03-23T16:39:35.953Z,99719.59
2023-03-23T16:42:04.001Z,99719.55
2023-03-23T16:44:32.189Z,99719.92
2023-03-23T16:47:00.133Z,99722.59
2023-03-23T16:49:28.326Z,99725.41
2023-03-23T16:51:56.361Z,99725.87
2023-03-23T16:54:24.613Z,99723.21
2023-03-23T16:56:52.909Z,99725.41
2023-03-23T16:59:21.196Z,99730.16
2023-03-23T17:01:49.373Z,99731.29
2023-03-23T17:04:18.034Z,99737.75
2023-03-23T17:06:46.820Z,99738.90
2023-03-23T17:09:14.774Z,99738.02
2023-03-23T17:11:42.818Z,99743.54
2023-03-23T17:14:11.049Z,99737.88
2023-03-23T17:16:40.268Z,99707.45
2023-03-23T17:19:08.497Z,99739.25
2023-03-23T17:21:37.776Z,99745.81
2023-03-23T17:24:06.605Z,99748.59
2023-03-23T17:26:36.198Z,99744.21
2023-03-23T17:29:04.488Z,99746.44
2023-03-23T17:31:32.702Z,99742.98
2023-03-23T17:34:01.141Z,99737.46
2023-03-23T17:36:29.455Z,99742.70
2023-03-23T17:38:57.860Z,99746.15
2023-03-23T17:41:25.987Z,99756.63
2023-03-23T17:43:54.062Z,99757.53
2023-03-23T17:46:22.169Z,99761.79
2023-03-23T17:48:50.255Z,99768.55
2023-03-23T17:51:18.357Z,99778.97
2023-03-23T17:53:46.518Z,99784.50
2023-03-23T17:56:15.040Z,99785.20
2023-03-23T17:58:43.199Z,99797.52
2023-03-23T18:01:11.430Z,99796.02
2023-03-23T18:03:39.666Z,99798.12
2023-03-23T18:06:08.876Z,99798.94
2023-03-23T18:08:37.827Z,99799.32
2023-03-23T18:11:07.149Z,99796.64
2023-03-23T18:13:37.258Z,99796.55
2023-03-23T18:16:06.630Z,99795.60
2023-03-23T18:18:35.176Z,99786.02
2023-03-23T18:21:08.933Z,99784.95
2023-03-23T18:23:52.979Z,99783.75
2023-03-23T18:26:28.024Z,99789.73
2023-03-23T18:28:59.361Z,99789.60
2023-03-23T18:31:31.804Z,99790.30
2023-03-23T18:34:02.798Z,99787.42
2023-03-23T18:36:36.965Z,99787.57
2023-03-23T18:39:07.058Z,99789.94
2023-03-23T18:41:35.377Z,99787.73
2023-03-23T18:44:03.419Z,99787.70
2023-03-23T18:46:31.760Z,99786.77
2023-03-23T18:48:59.744Z,99783.00
2023-03-23T18:51:31.111Z,99787.05
2023-03-23T18:53:59.420Z,99787.17
2023-03-23T18:56:27.576Z,99787.83
2023-03-23T18:58:55.573Z,99785.84
2023-03-23T19:01:24.494Z,99780.00
2023-03-23T19:03:52.892Z,99780.34
2023-03-23T19:06:25.485Z,99775.69
2023-03-23T19:08:54.922Z,99779.98
2023-03-23T19:11:26.591Z,99784.49
2023-03-23T19:14:03.800Z,99789.00
2023-03-23T19:16:49.815Z,99793.77
2023-03-23T19:19:18.711Z,99805.23
2023-03-23T19:21:55.473Z,99805.41
2023-03-23T19:24:26.445Z,99802.98
2023-03-23T19:26:54.892Z,99802.55
2023-03-23T19:29:27.039Z,99799.09
2023-03-23T19:31:57.983Z,99790.48
2023-03-23T19:34:28.380Z,99794.14
2023-03-23T19:37:05.397Z,99801.52
2023-03-23T19:39:35.183Z,99803.82
2023-03-23T19:42:04.470Z,99798.32
2023-03-23T19:44:35.037Z,99799.81
2023-03-23T19:47:03.928Z,99794.89
2023-03-23T19:49:32.117Z,99785.85
2023-03-23T19:52:07.849Z,99781.42
2023-03-23T19:54:39.533Z,99780.59
2023-03-23T19:57:08.171Z,99768.23
2023-03-23T19:59:37.254Z,99757.95
2023-03-23T20:02:08.504Z,99762.14
2023-03-23T20:04:36.774Z,99766.11
2023-03-23T20:07:07.641Z,99771.53
2023-03-23T20:09:38.163Z,99775.46
2023-03-23T20:12:07.321Z,99768.98
2023-03-23T20:14:37.415Z,99782.01
2023-03-23T20:17:09.883Z,99788.07
2023-03-23T20:19:38.614Z,99787.88
2023-03-23T20:22:07.405Z,99787.68
2023-03-23T20:24:35.509Z,99787.48
2023-03-23T20:27:04.052Z,99790.73
2023-03-23T20:29:33.530Z,99789.77
2023-03-23T20:32:01.977Z,99792.66
2023-03-23T20:34:31.192Z,99778.77
2023-03-23T20:37:01.879Z,99771.85
2023-03-23T20:39:32.721Z,99772.00
2023-03-23T20:42:03.353Z,99775.20
2023-03-23T20:44:35.121Z,99779.77
2023-03-23T20:47:03.936Z,99778.98
2023-03-23T20:49:33.493Z,99775.88
2023-03-23T20:52:02.178Z,99771.30
2023-03-23T20:54:30.557Z,99766.92
2023-03-23T20:56:59.125Z,99771.00
2023-03-23T20:59:28.295Z,99761.92
2023-03-23T21:01:56.405Z,99764.95
2023-03-23T21:04:27.607Z,99769.70
2023-03-23T21:06:56.143Z,99778.86
2023-03-23T21:09:25.542Z,99782.22
2023-03-23T21:11:54.503Z,99780.03
2023-03-23T21:14:23.191Z,99785.08
2023-03-23T21:16:51.823Z,99781.34
2023-03-23T21:19:20.491Z,99779.90
2023-03-23T21:21:55.848Z,99779.02
2023-03-23T21:24:31.513Z,99780.20
2023-03-23T21:27:02.317Z,99780.02
2023-03-23T21:29:30.934Z,99766.64
2023-03-23T21:34:30.745Z,99777.25
2023-03-23T21:36:58.922Z,99778.05
2023-03-23T21:39:27.843Z,99781.96
2023-03-23T21:41:55.988Z,99781.71
2023-03-23T21:44:24.474Z,99780.48
2023-03-23T21:46:54.516Z,99781.73
2023-03-23T21:49:22.759Z,99783.09
2023-03-23T21:51:51.012Z,99783.83
2023-03-23T21:54:21.324Z,99787.59
2023-03-23T21:56:49.476Z,99795.85
2023-03-23T21:59:17.718Z,99797.63
2023-03-23T22:01:45.712Z,99795.73
2023-03-23T22:04:13.931Z,99799.22
2023-03-23T22:06:42.620Z,99800.60
2023-03-23T22:09:11.527Z,99804.26
2023-03-23T22:11:40.668Z,99801.80
2023-03-23T22:14:09.225Z,99806.77
2023-03-23T22:16:37.928Z,99810.13
2023-03-23T22:19:06.946Z,99811.20
2023-03-23T22:21:36.900Z,99811.88
2023-03-23T22:24:05.559Z,99805.80
2023-03-23T22:26:34.189Z,99807.71
2023-03-23T22:29:02.570Z,99809.77
2023-03-23T22:31:34.392Z,99814.52
2023-03-23T22:34:02.850Z,99809.46
2023-03-23T22:36:33.366Z,99814.52
2023-03-23T22:39:02.136Z,99815.12
2023-03-23T22:41:33.995Z,99816.41
2023-03-23T22:44:02.038Z,99813.48
2023-03-23T22:46:30.507Z,99815.45
2023-03-23T22:48:58.868Z,99812.79
2023-03-23T22:51:26.986Z,99818.27
2023-03-23T22:53:55.956Z,99817.52
2023-03-23T22:56:25.219Z,99819.52
2023-03-23T22:58:54.730Z,99822.10
2023-03-23T23:01:23.855Z,99820.29
2023-03-23T23:03:52.140Z,99822.14
2023-03-23T23:06:20.793Z,99821.91
2023-03-23T23:08:49.441Z,99822.23
2023-03-23T23:11:20.075Z,99819.95
2023-03-23T23:13:48.417Z,99797.95
2023-03-23T23:16:19.357Z,99819.69
2023-03-23T23:18:48.469Z,99822.48
2023-03-23T23:21:19.016Z,99831.92
2023-03-23T23:23:47.885Z,99830.58
2023-03-23T23:26:16.705Z,99826.30
2023-03-23T23:28:46.144Z,99825.98
2023-03-23T23:31:26.329Z,99828.50
2023-03-23T23:33:59.685Z,99832.13
2023-03-23T23:36:30.536Z,99817.02
2023-03-23T23:39:03.688Z,99836.39
2023-03-23T23:41:31.901Z,99833.70
2023-03-23T23:44:00.384Z,99833.91
2023-03-23T23:46:30.651Z,99833.76
2023-03-23T23:48:59.882Z,99835.75
2023-03-23T23:51:29.323Z,99839.14
2023-03-23T23:54:01.928Z,99837.49
2023-03-23T23:56:30.724Z,99839.11
2023-03-23T23:58:58.904Z,99839.08
